createdAt,value
2023-07-25T00:01:42.780Z,99.90
2023-07-25T00:04:09.717Z,99.90
2023-07-25T00:06:36.577Z,99.90
2023-07-25T00:09:03.477Z,99.90
2023-07-25T00:11:30.516Z,99.90
2023-07-25T00:13:57.543Z,99.90
2023-07-25T00:16:24.390Z,99.90
2023-07-25T00:18:51.833Z,99.90
2023-07-25T00:21:18.731Z,99.90
2023-07-25T00:23:45.610Z,99.90
2023-07-25T00:26:12.472Z,99.90
2023-07-25T00:28:39.291Z,99.90
2023-07-25T00:31:06.739Z,99.90
2023-07-25T00:33:33.684Z,99.90
2023-07-25T00:36:00.481Z,99.90
2023-07-25T00:38:27.349Z,99.90
2023-07-25T00:40:54.198Z,99.90
2023-07-25T00:43:21.048Z,99.90
2023-07-25T00:45:48.088Z,99.90
2023-07-25T00:48:15.102Z,99.90
2023-07-25T00:50:41.947Z,99.90
2023-07-25T00:53:10.757Z,99.90
2023-07-25T00:55:38.242Z,99.90
2023-07-25T00:58:05.273Z,99.90
2023-07-25T01:00:32.136Z,99.90
2023-07-25T01:02:59.140Z,99.90
2023-07-25T01:05:26.923Z,99.90
2023-07-25T01:07:53.787Z,99.90
2023-07-25T01:10:20.676Z,99.90
2023-07-25T01:12:47.500Z,99.90
2023-07-25T01:15:14.483Z,99.90
2023-07-25T01:17:41.418Z,99.90
2023-07-25T01:20:09.654Z,99.90
2023-07-25T01:22:37.323Z,99.90
2023-07-25T01:25:04.333Z,99.90
2023-07-25T01:27:31.166Z,99.90
2023-07-25T01:29:58.041Z,99.90
2023-07-25T01:32:24.975Z,99.90
2023-07-25T01:34:51.867Z,99.90
2023-07-25T01:37:18.722Z,99.90
2023-07-25T01:39:45.640Z,99.90
2023-07-25T01:42:12.546Z,99.90
2023-07-25T01:44:39.512Z,99.90
2023-07-25T01:47:06.659Z,99.90
2023-07-25T01:49:33.542Z,99.90
2023-07-25T01:52:00.369Z,99.90
2023-07-25T01:54:27.270Z,99.90
2023-07-25T01:56:54.145Z,99.90
2023-07-25T01:59:21.121Z,99.90
2023-07-25T02:01:48.029Z,99.90
2023-07-25T02:04:14.905Z,99.90
2023-07-25T02:06:41.846Z,99.90
2023-07-25T02:09:08.737Z,99.90
2023-07-25T02:11:35.604Z,99.90
2023-07-25T02:14:02.487Z,99.90
2023-07-25T02:16:29.508Z,99.90
2023-07-25T02:18:56.405Z,99.90
2023-07-25T02:21:23.296Z,99.90
2023-07-25T02:23:50.331Z,99.90
2023-07-25T02:26:17.170Z,99.90
2023-07-25T02:28:43.982Z,99.90
2023-07-25T02:31:10.850Z,99.90
2023-07-25T02:33:39.106Z,99.90
2023-07-25T02:36:06.445Z,99.90
2023-07-25T02:38:33.296Z,99.90
2023-07-25T02:41:00.138Z,99.90
2023-07-25T02:43:27.002Z,99.90
2023-07-25T02:45:53.982Z,99.90
2023-07-25T02:48:20.973Z,99.90
2023-07-25T02:50:47.791Z,99.90
2023-07-25T02:53:14.719Z,99.90
2023-07-25T02:55:41.596Z,99.90
2023-07-25T02:58:08.555Z,99.90
2023-07-25T03:00:35.529Z,99.90
2023-07-25T03:03:02.601Z,99.90
2023-07-25T03:05:29.699Z,99.90
2023-07-25T03:07:57.234Z,99.90
2023-07-25T03:10:24.129Z,99.90
2023-07-25T03:12:51.006Z,99.90
2023-07-25T03:15:17.999Z,99.90
2023-07-25T03:17:46.792Z,99.90
2023-07-25T03:20:13.812Z,99.90
2023-07-25T03:22:40.806Z,99.90
2023-07-25T03:25:07.922Z,99.90
2023-07-25T03:27:34.950Z,99.90
2023-07-25T03:30:01.966Z,99.90
2023-07-25T03:32:29.226Z,99.90
2023-07-25T03:34:56.876Z,99.90
2023-07-25T03:37:23.817Z,99.90
2023-07-25T03:39:50.694Z,99.90
2023-07-25T03:42:17.564Z,99.90
2023-07-25T03:44:44.436Z,99.90
2023-07-25T03:47:11.278Z,99.90
2023-07-25T03:49:38.163Z,99.90
2023-07-25T03:52:05.180Z,99.90
2023-07-25T03:54:32.188Z,99.90
2023-07-25T03:56:59.091Z,99.90
2023-07-25T03:59:25.939Z,99.90
2023-07-25T04:01:53.773Z,99.90
2023-07-25T04:04:20.715Z,99.90
2023-07-25T04:06:47.648Z,99.90
2023-07-25T04:09:14.551Z,99.90
2023-07-25T04:11:41.417Z,99.90
2023-07-25T04:14:08.278Z,99.90
2023-07-25T04:16:35.158Z,99.90
2023-07-25T04:19:02.036Z,99.90
2023-07-25T04:21:29.258Z,99.90
2023-07-25T04:23:56.329Z,99.90
2023-07-25T04:26:23.252Z,99.90
2023-07-25T04:28:50.181Z,99.90
2023-07-25T04:31:17.094Z,99.90
2023-07-25T04:33:44.168Z,99.90
2023-07-25T04:36:11.134Z,99.90
2023-07-25T04:38:38.164Z,99.90
2023-07-25T04:41:05.059Z,99.90
2023-07-25T04:43:31.936Z,99.90
2023-07-25T04:45:58.801Z,99.90
2023-07-25T04:48:25.761Z,99.90
2023-07-25T04:50:53.016Z,99.90
2023-07-25T04:53:19.936Z,99.90
2023-07-25T04:55:47.055Z,99.90
2023-07-25T04:58:13.915Z,99.90
2023-07-25T05:00:40.917Z,99.90
2023-07-25T05:03:10.015Z,99.90
2023-07-25T05:05:37.016Z,99.90
2023-07-25T05:08:03.990Z,99.90
2023-07-25T05:10:32.480Z,99.90
2023-07-25T05:12:59.301Z,99.90
2023-07-25T05:15:26.170Z,99.90
2023-07-25T05:17:53.335Z,99.90
2023-07-25T05:20:20.185Z,99.90
2023-07-25T05:22:47.085Z,99.90
2023-07-25T05:25:13.951Z,99.90
2023-07-25T05:27:40.872Z,99.90
2023-07-25T05:30:08.100Z,99.90
2023-07-25T05:32:37.497Z,99.90
2023-07-25T05:35:04.956Z,99.90
2023-07-25T05:37:38.086Z,99.90
2023-07-25T05:40:05.420Z,99.90
2023-07-25T05:42:32.714Z,99.90
2023-07-25T05:45:00.892Z,99.90
2023-07-25T05:47:30.933Z,99.90
2023-07-25T05:49:57.883Z,99.90
2023-07-25T05:52:24.892Z,99.90
2023-07-25T05:54:52.586Z,99.90
2023-07-25T05:57:19.529Z,99.90
2023-07-25T05:59:46.497Z,99.90
2023-07-25T06:02:13.407Z,99.90
2023-07-25T06:04:40.367Z,99.90
2023-07-25T06:07:07.296Z,99.90
2023-07-25T06:09:34.215Z,99.90
2023-07-25T06:12:01.227Z,99.90
2023-07-25T06:14:28.134Z,99.90
2023-07-25T06:16:55.141Z,99.90
2023-07-25T06:19:22.838Z,99.90
2023-07-25T06:21:49.970Z,99.90
2023-07-25T06:24:17.235Z,99.90
2023-07-25T06:26:44.187Z,99.90
2023-07-25T06:29:11.103Z,99.90
2023-07-25T06:31:38.299Z,99.90
2023-07-25T06:34:05.464Z,99.90
2023-07-25T06:36:32.400Z,99.90
2023-07-25T06:38:59.398Z,99.90
2023-07-25T06:41:26.342Z,99.90
2023-07-25T06:43:58.854Z,99.90
2023-07-25T06:46:26.377Z,99.90
2023-07-25T06:48:53.577Z,99.90
2023-07-25T06:51:21.621Z,99.90
2023-07-25T06:53:48.597Z,99.90
2023-07-25T06:56:15.497Z,99.90
2023-07-25T06:58:42.389Z,99.90
2023-07-25T07:01:09.274Z,99.90
2023-07-25T07:03:36.309Z,99.90
2023-07-25T07:06:03.292Z,99.90
2023-07-25T07:08:30.075Z,99.90
2023-07-25T07:10:57.358Z,99.90
2023-07-25T07:13:24.577Z,99.90
2023-07-25T07:15:51.549Z,99.90
2023-07-25T07:18:18.965Z,99.10
2023-07-25T07:20:50.917Z,97.90
2023-07-25T07:23:17.839Z,96.90
2023-07-25T07:25:44.977Z,96.40
2023-07-25T07:28:12.330Z,96.50
2023-07-25T07:30:39.231Z,97.20
2023-07-25T07:33:06.105Z,97.60
2023-07-25T07:35:32.987Z,98.30
2023-07-25T07:38:00.181Z,99.00
2023-07-25T07:40:27.257Z,99.60
2023-07-25T07:42:54.138Z,99.90
2023-07-25T07:45:23.091Z,99.90
2023-07-25T07:47:50.055Z,99.90
2023-07-25T07:50:17.089Z,99.90
2023-07-25T07:52:44.469Z,99.90
2023-07-25T07:55:11.898Z,99.90
2023-07-25T07:57:41.969Z,99.90
2023-07-25T08:00:09.514Z,99.90
2023-07-25T08:02:39.244Z,99.90
2023-07-25T08:05:06.439Z,99.90
2023-07-25T08:07:33.436Z,99.90
2023-07-25T08:10:00.382Z,99.90
2023-07-25T08:12:27.242Z,99.90
2023-07-25T08:14:54.174Z,99.90
2023-07-25T08:17:21.103Z,99.90
2023-07-25T08:19:47.979Z,99.90
2023-07-25T08:22:14.788Z,99.90
2023-07-25T08:24:42.003Z,99.90
2023-07-25T08:27:09.209Z,99.90
2023-07-25T08:29:44.096Z,99.90
2023-07-25T08:32:11.444Z,99.90
2023-07-25T08:34:39.191Z,99.90
2023-07-25T08:37:06.966Z,99.90
2023-07-25T08:39:34.648Z,99.90
2023-07-25T08:42:04.885Z,99.90
2023-07-25T08:44:33.312Z,99.90
2023-07-25T08:47:02.159Z,99.90
2023-07-25T08:49:31.719Z,99.90
2023-07-25T08:52:00.719Z,99.90
2023-07-25T08:54:38.098Z,99.90
2023-07-25T08:57:05.454Z,99.90
2023-07-25T08:59:32.617Z,99.90
2023-07-25T09:01:59.789Z,99.90
2023-07-25T09:04:27.320Z,99.90
2023-07-25T09:06:54.419Z,99.90
2023-07-25T09:09:21.377Z,99.90
2023-07-25T09:11:48.595Z,99.90
2023-07-25T09:14:15.445Z,99.90
2023-07-25T09:16:42.414Z,99.90
2023-07-25T09:19:09.374Z,99.90
2023-07-25T09:21:49.196Z,99.90
2023-07-25T09:24:16.344Z,99.90
2023-07-25T09:26:53.140Z,98.10
2023-07-25T09:29:21.993Z,94.00
2023-07-25T09:31:49.097Z,88.40
2023-07-25T09:34:17.450Z,86.20
2023-07-25T09:36:50.642Z,83.40
2023-07-25T09:39:18.118Z,79.30
2023-07-25T09:41:46.810Z,79.20
2023-07-25T09:44:14.026Z,77.00
2023-07-25T09:46:51.101Z,73.90
2023-07-25T09:49:20.264Z,70.20
2023-07-25T09:51:57.745Z,66.00
2023-07-25T09:54:24.622Z,61.60
2023-07-25T09:56:52.279Z,59.10
2023-07-25T09:59:19.121Z,60.20
2023-07-25T10:01:46.546Z,59.70
2023-07-25T10:04:16.306Z,59.00
2023-07-25T10:06:43.541Z,57.60
2023-07-25T10:09:11.365Z,55.30
2023-07-25T10:11:38.404Z,53.50
2023-07-25T10:14:05.254Z,52.90
2023-07-25T10:16:32.138Z,52.60
2023-07-25T10:18:59.361Z,51.40
2023-07-25T10:21:28.130Z,51.10
2023-07-25T10:23:59.781Z,50.30
2023-07-25T10:26:27.654Z,49.40
2023-07-25T10:28:54.572Z,48.10
2023-07-25T10:31:23.556Z,48.00
2023-07-25T10:33:58.474Z,47.40
2023-07-25T10:36:26.167Z,46.60
2023-07-25T10:38:59.147Z,46.10
2023-07-25T10:41:25.974Z,45.40
2023-07-25T10:44:02.790Z,44.80
2023-07-25T10:46:31.359Z,43.80
2023-07-25T10:49:02.069Z,43.70
2023-07-25T10:51:49.021Z,42.30
2023-07-25T10:54:18.293Z,38.30
2023-07-25T10:57:25.510Z,40.20
2023-07-25T11:00:11.241Z,39.80
2023-07-25T11:02:44.040Z,39.40
2023-07-25T11:05:13.763Z,39.20
2023-07-25T11:07:46.428Z,39.80
2023-07-25T11:10:21.714Z,40.40
2023-07-25T11:12:53.292Z,39.40
2023-07-25T11:15:32.151Z,37.60
2023-07-25T11:18:10.214Z,37.30
2023-07-25T11:20:37.065Z,38.10
2023-07-25T11:23:03.913Z,38.00
2023-07-25T11:25:30.781Z,39.40
2023-07-25T11:27:57.593Z,40.80
2023-07-25T11:30:24.466Z,41.90
2023-07-25T11:32:52.672Z,44.00
2023-07-25T11:35:20.068Z,45.50
2023-07-25T11:37:47.559Z,46.00
2023-07-25T11:40:14.554Z,47.10
2023-07-25T11:42:43.090Z,47.80
2023-07-25T11:45:10.872Z,46.90
2023-07-25T11:47:42.520Z,46.10
2023-07-25T11:52:44.406Z,46.60
2023-07-25T11:55:12.128Z,48.40
2023-07-25T11:57:41.489Z,48.90
2023-07-25T12:00:17.000Z,48.60
2023-07-25T12:02:43.976Z,48.40
2023-07-25T12:05:25.506Z,49.00
2023-07-25T12:07:53.335Z,49.70
2023-07-25T12:10:29.882Z,50.30
2023-07-25T12:12:57.198Z,50.30
2023-07-25T12:15:24.803Z,51.10
2023-07-25T12:17:51.769Z,51.20
2023-07-25T12:20:19.662Z,51.40
2023-07-25T12:22:47.232Z,52.20
2023-07-25T12:25:18.723Z,50.40
2023-07-25T12:27:47.051Z,48.90
2023-07-25T12:30:14.068Z,47.10
2023-07-25T12:32:40.955Z,47.00
2023-07-25T12:35:09.817Z,47.50
2023-07-25T12:37:36.631Z,48.20
2023-07-25T12:40:04.956Z,49.40
2023-07-25T12:42:31.848Z,50.30
2023-07-25T12:45:02.365Z,50.60
2023-07-25T12:47:29.232Z,49.50
2023-07-25T12:49:56.194Z,49.00
2023-07-25T12:52:23.132Z,48.60
2023-07-25T12:54:49.991Z,47.80
2023-07-25T12:57:16.797Z,47.20
2023-07-25T12:59:43.753Z,47.20
2023-07-25T13:02:10.580Z,46.30
2023-07-25T13:04:39.179Z,46.80
2023-07-25T13:07:06.361Z,47.60
2023-07-25T13:09:33.204Z,47.90
2023-07-25T13:12:00.048Z,48.10
2023-07-25T13:14:26.932Z,48.00
2023-07-25T13:16:53.942Z,47.60
2023-07-25T13:19:20.774Z,47.60
2023-07-25T13:21:48.292Z,47.70
2023-07-25T13:24:15.430Z,48.50
2023-07-25T13:26:42.290Z,48.30
2023-07-25T13:29:09.332Z,48.50
2023-07-25T13:31:36.301Z,48.90
2023-07-25T13:34:03.959Z,49.20
2023-07-25T13:36:30.773Z,49.60
2023-07-25T13:38:57.695Z,49.30
2023-07-25T13:41:25.372Z,49.80
2023-07-25T13:43:52.196Z,49.60
2023-07-25T13:46:19.109Z,49.50
2023-07-25T13:48:48.577Z,49.70
2023-07-25T13:51:15.510Z,49.80
2023-07-25T13:53:42.443Z,50.10
2023-07-25T13:56:09.365Z,49.90
2023-07-25T13:58:36.449Z,50.10
2023-07-25T14:01:03.533Z,50.50
2023-07-25T14:03:31.715Z,50.70
2023-07-25T14:05:58.667Z,50.50
2023-07-25T14:08:25.545Z,50.80
2023-07-25T14:10:52.394Z,51.00
2023-07-25T14:13:19.257Z,51.50
2023-07-25T14:15:46.227Z,51.50
2023-07-25T14:18:13.120Z,50.70
2023-07-25T14:20:40.001Z,50.70
2023-07-25T14:23:06.880Z,50.50
2023-07-25T14:25:33.702Z,50.60
2023-07-25T14:28:00.687Z,51.10
2023-07-25T14:30:27.789Z,51.70
2023-07-25T14:32:54.666Z,52.70
2023-07-25T14:35:21.550Z,53.60
2023-07-25T14:37:56.900Z,53.70
2023-07-25T14:40:24.917Z,53.90
2023-07-25T14:42:51.967Z,54.30
2023-07-25T14:45:18.916Z,55.10
2023-07-25T14:47:46.016Z,54.50
2023-07-25T14:50:13.259Z,54.80
2023-07-25T14:52:40.169Z,55.00
2023-07-25T14:55:07.472Z,55.40
2023-07-25T14:57:34.510Z,55.80
2023-07-25T15:00:01.439Z,55.90
2023-07-25T15:02:28.492Z,56.50
2023-07-25T15:04:55.449Z,56.50
2023-07-25T15:07:22.273Z,56.40
2023-07-25T15:09:49.130Z,56.60
2023-07-25T15:12:16.809Z,57.30
2023-07-25T15:14:43.705Z,57.90
2023-07-25T15:17:11.221Z,57.90
2023-07-25T15:19:38.130Z,57.90
2023-07-25T15:22:05.193Z,58.10
2023-07-25T15:24:32.231Z,58.30
2023-07-25T15:26:59.110Z,58.40
2023-07-25T15:29:25.963Z,58.40
2023-07-25T15:31:52.806Z,58.30
2023-07-25T15:34:19.659Z,58.60
2023-07-25T15:36:46.913Z,58.80
2023-07-25T15:39:14.026Z,58.70
2023-07-25T15:41:40.989Z,58.40
2023-07-25T15:44:07.844Z,58.50
2023-07-25T15:46:34.681Z,58.40
2023-07-25T15:49:01.596Z,59.30
2023-07-25T15:51:28.557Z,58.80
2023-07-25T15:53:55.455Z,59.10
2023-07-25T15:56:22.353Z,59.20
2023-07-25T15:58:49.216Z,59.20
2023-07-25T16:01:16.179Z,59.20
2023-07-25T16:03:44.743Z,59.30
2023-07-25T16:06:12.571Z,59.10
2023-07-25T16:08:39.529Z,59.00
2023-07-25T16:11:06.472Z,59.30
2023-07-25T16:13:39.541Z,59.90
2023-07-25T16:16:06.795Z,60.10
2023-07-25T16:18:34.159Z,60.10
2023-07-25T16:21:01.093Z,60.10
2023-07-25T16:23:27.890Z,62.20
2023-07-25T16:25:57.814Z,64.90
2023-07-25T16:28:24.674Z,66.10
2023-07-25T16:30:55.870Z,67.90
2023-07-25T16:33:34.048Z,68.50
2023-07-25T16:36:00.900Z,68.50
2023-07-25T16:38:28.857Z,69.20
2023-07-25T16:40:55.801Z,69.50
2023-07-25T16:43:23.397Z,69.70
2023-07-25T16:45:51.528Z,70.40
2023-07-25T16:48:18.435Z,70.20
2023-07-25T16:50:45.273Z,70.60
2023-07-25T16:53:12.113Z,70.80
2023-07-25T16:55:38.945Z,71.10
2023-07-25T16:58:05.859Z,71.20
2023-07-25T17:00:32.710Z,71.30
2023-07-25T17:02:59.597Z,71.40
2023-07-25T17:05:26.647Z,71.60
2023-07-25T17:07:53.496Z,71.60
2023-07-25T17:10:20.375Z,72.10
2023-07-25T17:12:47.199Z,71.80
2023-07-25T17:15:14.034Z,72.60
2023-07-25T17:17:41.041Z,72.60
2023-07-25T17:20:08.313Z,72.90
2023-07-25T17:22:35.166Z,73.50
2023-07-25T17:25:02.009Z,73.20
2023-07-25T17:27:28.918Z,74.00
2023-07-25T17:29:55.765Z,74.10
2023-07-25T17:32:22.904Z,74.00
2023-07-25T17:34:49.857Z,74.30
2023-07-25T17:37:16.718Z,74.40
2023-07-25T17:39:43.871Z,74.40
2023-07-25T17:42:10.926Z,74.30
2023-07-25T17:44:38.122Z,74.60
2023-07-25T17:47:05.834Z,74.50
2023-07-25T17:49:32.979Z,74.60
2023-07-25T17:51:59.784Z,74.40
2023-07-25T17:54:26.676Z,74.40
2023-07-25T17:56:53.671Z,74.60
2023-07-25T17:59:20.937Z,74.80
2023-07-25T18:01:47.891Z,75.10
2023-07-25T18:04:14.836Z,75.70
2023-07-25T18:06:41.868Z,76.00
2023-07-25T18:09:09.243Z,76.40
2023-07-25T18:11:36.374Z,76.70
2023-07-25T18:14:03.748Z,76.80
2023-07-25T18:16:30.691Z,77.10
2023-07-25T18:18:57.672Z,77.50
2023-07-25T18:21:24.569Z,77.70
2023-07-25T18:23:51.383Z,77.90
2023-07-25T18:26:18.511Z,78.40
2023-07-25T18:28:45.462Z,78.80
2023-07-25T18:31:12.444Z,79.40
2023-07-25T18:33:39.924Z,79.60
2023-07-25T18:36:07.145Z,79.90
2023-07-25T18:38:34.791Z,80.40
2023-07-25T18:41:01.914Z,80.80
2023-07-25T18:43:29.550Z,81.20
2023-07-25T18:45:56.396Z,81.40
2023-07-25T18:48:23.477Z,82.00
2023-07-25T18:50:50.601Z,82.60
2023-07-25T18:53:17.486Z,82.90
2023-07-25T18:55:44.322Z,83.10
2023-07-25T18:58:11.209Z,83.50
2023-07-25T19:00:38.470Z,83.80
2023-07-25T19:03:06.040Z,84.00
2023-07-25T19:05:33.049Z,84.40
2023-07-25T19:07:59.901Z,84.90
2023-07-25T19:10:26.817Z,85.20
2023-07-25T19:12:54.258Z,85.60
2023-07-25T19:15:21.201Z,85.90
2023-07-25T19:17:48.115Z,86.10
2023-07-25T19:20:15.324Z,86.70
2023-07-25T19:22:42.516Z,87.00
2023-07-25T19:28:10.639Z,87.40
2023-07-25T19:30:38.856Z,87.90
2023-07-25T19:33:05.839Z,88.10
2023-07-25T19:35:32.782Z,88.20
2023-07-25T19:37:59.669Z,88.30
2023-07-25T19:40:27.349Z,88.30
2023-07-25T19:42:54.187Z,88.40
2023-07-25T19:45:21.019Z,88.40
2023-07-25T19:47:47.909Z,88.50
2023-07-25T19:50:15.421Z,88.40
2023-07-25T19:52:42.498Z,88.40
2023-07-25T19:55:09.569Z,88.40
2023-07-25T19:57:37.797Z,88.50
2023-07-25T20:00:04.913Z,88.60
2023-07-25T20:02:32.019Z,88.90
2023-07-25T20:04:58.930Z,89.00
2023-07-25T20:07:25.798Z,89.20
2023-07-25T20:09:53.871Z,89.30
2023-07-25T20:12:20.779Z,89.10
2023-07-25T20:14:47.727Z,89.10
2023-07-25T20:17:14.562Z,89.50
2023-07-25T20:19:41.344Z,90.00
2023-07-25T20:22:08.189Z,90.20
2023-07-25T20:24:35.065Z,90.30
2023-07-25T20:27:01.941Z,90.50
2023-07-25T20:29:29.927Z,90.60
2023-07-25T20:31:57.138Z,90.80
2023-07-25T20:34:24.962Z,91.00
2023-07-25T20:36:51.818Z,91.20
2023-07-25T20:39:18.682Z,91.30
2023-07-25T20:41:45.623Z,91.60
2023-07-25T20:44:12.437Z,91.80
2023-07-25T20:46:39.345Z,91.90
2023-07-25T20:49:06.256Z,90.50
2023-07-25T20:51:33.205Z,85.00
2023-07-25T20:54:00.317Z,78.80
2023-07-25T20:56:29.397Z,77.70
2023-07-25T20:58:56.454Z,76.20
2023-07-25T21:01:23.514Z,75.40
2023-07-25T21:03:50.607Z,74.80
2023-07-25T21:06:17.558Z,74.60
2023-07-25T21:08:44.417Z,74.00
2023-07-25T21:11:11.262Z,73.60
2023-07-25T21:13:38.281Z,73.50
2023-07-25T21:16:05.364Z,72.80
2023-07-25T21:18:32.240Z,71.80
2023-07-25T21:21:00.308Z,71.10
2023-07-25T21:23:28.385Z,70.70
2023-07-25T21:25:55.296Z,70.20
2023-07-25T21:28:22.170Z,69.30
2023-07-25T21:30:49.010Z,69.00
2023-07-25T21:33:16.063Z,68.90
2023-07-25T21:35:42.916Z,68.20
2023-07-25T21:38:09.756Z,67.90
2023-07-25T21:40:36.588Z,68.00
2023-07-25T21:43:03.887Z,68.30
2023-07-25T21:45:30.728Z,68.50
2023-07-25T21:47:57.581Z,68.40
2023-07-25T21:50:24.475Z,68.50
2023-07-25T21:52:51.308Z,68.50
2023-07-25T21:55:18.270Z,68.10
2023-07-25T21:57:45.077Z,67.90
2023-07-25T22:00:12.614Z,67.80
2023-07-25T22:02:39.485Z,67.50
2023-07-25T22:05:06.607Z,67.80
2023-07-25T22:07:33.692Z,67.90
2023-07-25T22:10:01.151Z,67.90
2023-07-25T22:12:27.997Z,67.80
2023-07-25T22:14:54.809Z,67.90
2023-07-25T22:17:21.751Z,67.60
2023-07-25T22:19:48.651Z,67.10
2023-07-25T22:22:15.686Z,67.10
2023-07-25T22:24:42.585Z,66.80
2023-07-25T22:27:09.621Z,65.70
2023-07-25T22:29:36.667Z,64.90
2023-07-25T22:32:03.713Z,64.70
2023-07-25T22:34:31.564Z,62.90
2023-07-25T22:36:58.494Z,62.50
2023-07-25T22:39:25.483Z,62.20
2023-07-25T22:41:52.637Z,62.10
2023-07-25T22:44:19.784Z,62.10
2023-07-25T22:46:46.656Z,62.60
2023-07-25T22:49:13.492Z,61.70
2023-07-25T22:51:40.331Z,61.80
2023-07-25T22:54:07.252Z,61.30
2023-07-25T22:56:34.414Z,61.20
2023-07-25T22:59:04.295Z,60.50
2023-07-25T23:01:33.114Z,59.70
2023-07-25T23:04:00.621Z,59.90
2023-07-25T23:06:27.473Z,59.90
2023-07-25T23:08:54.288Z,58.30
2023-07-25T23:11:23.002Z,58.50
2023-07-25T23:13:49.836Z,58.60
2023-07-25T23:16:19.156Z,58.30
2023-07-25T23:18:46.085Z,57.90
2023-07-25T23:21:12.912Z,57.80
2023-07-25T23:23:39.737Z,58.00
2023-07-25T23:26:06.620Z,58.40
2023-07-25T23:28:33.620Z,58.60
2023-07-25T23:31:01.293Z,59.00
2023-07-25T23:33:28.964Z,59.30
2023-07-25T23:35:55.881Z,59.20
2023-07-25T23:38:22.712Z,59.00
2023-07-25T23:40:49.586Z,59.20
2023-07-25T23:43:17.175Z,59.60
2023-07-25T23:45:43.979Z,59.90
2023-07-25T23:48:10.817Z,60.40
2023-07-25T23:50:37.650Z,60.70
2023-07-25T23:53:04.463Z,61.00
2023-07-25T23:55:31.403Z,61.40
2023-07-25T23:57:58.204Z,61.60
